Deelen, Nederland

8:37 AM CET op 09 december 2016 (GMT +0100)
Vivaldistraat | | Change Station

Hoogte 209 ft 52.00 °N, 5.90 °E | Updated 9 minutes ago

Mist
Mist
47.1 °F
Voelt als 47 °F
N
0.6
Wind Variabel Wind van NW
Gusts 2.5 mijl/u

Vandaag
Hoog -- | Laag -- °F
--% Kans op neerslag
Gisteren
Hoog -- | Laag -- °F
Precip. -- inches
Druk 30.36 inches
Zicht 1.8 mijlen
Wolken Geheel bewolkt 400 ft
Gevoelstemperatuur 47 °F
Dauwpunt 47 °F
Vochtigheid 98%
Neerslag 0.00 inches
Dikte sneeuw Niet beschikbaar.
8:33 AM 4:24 PM
Wassende maan, 71% visible
SPECI EHVK 090727Z AUTO 22010KT 190V250 2900 R24R/P3000D BR OVC004 09/08 Q1028 YLO 21008KT 7000 BKN010 TEMPO 2500 DZ SCT003 BKN005
Druk 30.36 inches
Zicht 1.8 mijlen
Wolken Geheel bewolkt 400 ft
Gevoelstemperatuur 47 °F
Dauwpunt 47 °F
Vochtigheid 98%
Neerslag 0.00 inches
Dikte sneeuw Niet beschikbaar.
8:33 AM 4:24 PM
Wassende maan, 71% visible
SPECI EHVK 090727Z AUTO 22010KT 190V250 2900 R24R/P3000D BR OVC004 09/08 Q1028 YLO 21008KT 7000 BKN010 TEMPO 2500 DZ SCT003 BKN005

10-Day Weather Forecast

×

Almanac

Astronomie

Dec. 09, 2016 Opkomst Ondergang
Werkelijke tijd
Burgerlijke schemering
Nautische schemering
Astronomische schemering
Maan
Golflengte van het zichtbare licht
Daglengte
Tomorrow will be .
, % of the Moon is Illuminated

Extremen vandaag

Country Highs Country Lows

Community

WunderPhotos

Upload Photos

1,956,374 foto’s ge-upload!

WunderBlog® & News

Nearby

Luchtkwaliteit

  Luchtkwaliteit LK-index Verontreinigende stof
Not available.

Dikte sneeuw

Station Depth Geometrische hoogte

Aardbevingen

Stad Distance Mag. Time & Date
Minimum magnitude displayed is 2.5.

Watertemperatuur langs de kust

Plaats Temperatuur

Stations

Nabije weerstations

Locatie station Temp. Gevoelstemperatuur Dauwpunt Vochtigheid Wind Precip. Hoogte Geactualiseerd Type